sensor_id;sensor_type;location;lat;lon;timestamp;P1;durP1;ratioP1;P2;durP2;ratioP2
22955;SDS011;40888;48.148;11.526;2024-01-07T00:02:20;37.80;;;28.47;;
22955;SDS011;40888;48.148;11.526;2024-01-07T00:04:46;36.33;;;27.63;;
22955;SDS011;40888;48.148;11.526;2024-01-07T00:07:12;38.23;;;29.43;;
22955;SDS011;40888;48.148;11.526;2024-01-07T00:09:38;38.67;;;29.47;;
22955;SDS011;40888;48.148;11.526;2024-01-07T00:12:05;37.80;;;29.77;;
22955;SDS011;40888;48.148;11.526;2024-01-07T00:14:31;38.20;;;29.60;;
22955;SDS011;40888;48.148;11.526;2024-01-07T00:16:57;38.93;;;29.63;;
22955;SDS011;40888;48.148;11.526;2024-01-07T00:19:23;36.93;;;28.73;;
22955;SDS011;40888;48.148;11.526;2024-01-07T00:21:50;37.93;;;29.40;;
22955;SDS011;40888;48.148;11.526;2024-01-07T00:24:16;37.10;;;28.47;;
22955;SDS011;40888;48.148;11.526;2024-01-07T00:26:42;38.27;;;30.40;;
22955;SDS011;40888;48.148;11.526;2024-01-07T00:29:08;38.10;;;29.37;;
22955;SDS011;40888;48.148;11.526;2024-01-07T00:31:34;38.30;;;28.30;;
22955;SDS011;40888;48.148;11.526;2024-01-07T00:34:00;40.43;;;30.27;;
22955;SDS011;40888;48.148;11.526;2024-01-07T00:36:26;37.20;;;28.97;;
22955;SDS011;40888;48.148;11.526;2024-01-07T00:38:52;40.23;;;30.87;;
22955;SDS011;40888;48.148;11.526;2024-01-07T00:41:18;39.70;;;30.20;;
22955;SDS011;40888;48.148;11.526;2024-01-07T00:43:44;39.90;;;30.13;;
22955;SDS011;40888;48.148;11.526;2024-01-07T00:46:10;38.97;;;29.97;;
22955;SDS011;40888;48.148;11.526;2024-01-07T00:48:36;40.53;;;30.93;;
22955;SDS011;40888;48.148;11.526;2024-01-07T00:51:03;38.90;;;29.93;;
22955;SDS011;40888;48.148;11.526;2024-01-07T00:53:29;41.93;;;31.00;;
22955;SDS011;40888;48.148;11.526;2024-01-07T00:55:55;39.87;;;31.03;;
22955;SDS011;40888;48.148;11.526;2024-01-07T00:58:21;40.00;;;29.87;;
22955;SDS011;40888;48.148;11.526;2024-01-07T01:00:47;42.47;;;31.80;;
22955;SDS011;40888;48.148;11.526;2024-01-07T01:03:13;38.60;;;29.33;;
22955;SDS011;40888;48.148;11.526;2024-01-07T01:05:39;38.70;;;30.27;;
22955;SDS011;40888;48.148;11.526;2024-01-07T01:08:05;37.50;;;30.13;;
22955;SDS011;40888;48.148;11.526;2024-01-07T01:10:31;38.60;;;29.20;;
22955;SDS011;40888;48.148;11.526;2024-01-07T01:12:57;38.17;;;29.73;;
22955;SDS011;40888;48.148;11.526;2024-01-07T01:15:23;36.97;;;28.50;;
22955;SDS011;40888;48.148;11.526;2024-01-07T01:17:50;37.53;;;29.53;;
22955;SDS011;40888;48.148;11.526;2024-01-07T01:20:16;38.50;;;29.43;;
22955;SDS011;40888;48.148;11.526;2024-01-07T01:22:42;37.90;;;29.23;;
22955;SDS011;40888;48.148;11.526;2024-01-07T01:25:08;39.30;;;30.10;;
22955;SDS011;40888;48.148;11.526;2024-01-07T01:27:35;36.20;;;28.33;;
22955;SDS011;40888;48.148;11.526;2024-01-07T01:30:01;32.33;;;26.83;;
22955;SDS011;40888;48.148;11.526;2024-01-07T01:32:27;38.17;;;29.80;;
22955;SDS011;40888;48.148;11.526;2024-01-07T01:34:53;36.63;;;30.17;;
22955;SDS011;40888;48.148;11.526;2024-01-07T01:37:19;38.27;;;30.53;;
22955;SDS011;40888;48.148;11.526;2024-01-07T01:39:45;40.10;;;30.20;;
22955;SDS011;40888;48.148;11.526;2024-01-07T01:42:11;37.80;;;29.60;;
22955;SDS011;40888;48.148;11.526;2024-01-07T01:44:37;36.10;;;28.70;;
22955;SDS011;40888;48.148;11.526;2024-01-07T01:47:03;37.27;;;28.93;;
22955;SDS011;40888;48.148;11.526;2024-01-07T01:49:30;33.00;;;26.57;;
22955;SDS011;40888;48.148;11.526;2024-01-07T01:51:57;38.23;;;29.70;;
22955;SDS011;40888;48.148;11.526;2024-01-07T01:54:23;32.70;;;26.87;;
22955;SDS011;40888;48.148;11.526;2024-01-07T01:56:49;34.87;;;27.87;;
22955;SDS011;40888;48.148;11.526;2024-01-07T01:59:15;37.93;;;28.90;;
22955;SDS011;40888;48.148;11.526;2024-01-07T02:01:41;36.20;;;28.10;;
22955;SDS011;40888;48.148;11.526;2024-01-07T02:04:08;35.27;;;28.07;;
22955;SDS011;40888;48.148;11.526;2024-01-07T02:06:34;36.70;;;28.47;;
22955;SDS011;40888;48.148;11.526;2024-01-07T02:09:01;36.70;;;27.80;;
22955;SDS011;40888;48.148;11.526;2024-01-07T02:11:27;36.87;;;29.03;;
22955;SDS011;40888;48.148;11.526;2024-01-07T02:13:53;38.33;;;27.97;;
22955;SDS011;40888;48.148;11.526;2024-01-07T02:16:19;34.60;;;26.93;;
22955;SDS011;40888;48.148;11.526;2024-01-07T02:18:45;34.00;;;27.07;;
22955;SDS011;40888;48.148;11.526;2024-01-07T02:21:14;34.20;;;27.10;;
22955;SDS011;40888;48.148;11.526;2024-01-07T02:23:40;36.20;;;28.13;;
22955;SDS011;40888;48.148;11.526;2024-01-07T02:26:08;35.60;;;28.10;;
22955;SDS011;40888;48.148;11.526;2024-01-07T02:28:35;35.37;;;28.00;;
22955;SDS011;40888;48.148;11.526;2024-01-07T02:31:01;35.17;;;28.20;;
22955;SDS011;40888;48.148;11.526;2024-01-07T02:33:27;33.13;;;26.60;;
22955;SDS011;40888;48.148;11.526;2024-01-07T02:35:54;27.67;;;23.67;;
22955;SDS011;40888;48.148;11.526;2024-01-07T02:38:20;32.13;;;25.87;;
22955;SDS011;40888;48.148;11.526;2024-01-07T02:40:46;33.03;;;25.90;;
22955;SDS011;40888;48.148;11.526;2024-01-07T02:43:12;32.27;;;25.70;;
22955;SDS011;40888;48.148;11.526;2024-01-07T02:45:38;31.97;;;25.20;;
22955;SDS011;40888;48.148;11.526;2024-01-07T02:48:04;32.23;;;25.80;;
22955;SDS011;40888;48.148;11.526;2024-01-07T02:50:31;32.10;;;25.50;;
22955;SDS011;40888;48.148;11.526;2024-01-07T02:52:57;32.30;;;25.13;;
22955;SDS011;40888;48.148;11.526;2024-01-07T02:55:23;32.93;;;25.80;;
22955;SDS011;40888;48.148;11.526;2024-01-07T02:57:49;33.77;;;27.03;;
22955;SDS011;40888;48.148;11.526;2024-01-07T03:00:15;34.33;;;26.83;;
22955;SDS011;40888;48.148;11.526;2024-01-07T03:02:41;33.97;;;25.60;;
22955;SDS011;40888;48.148;11.526;2024-01-07T03:05:07;33.57;;;25.90;;
22955;SDS011;40888;48.148;11.526;2024-01-07T03:07:33;34.30;;;26.27;;
22955;SDS011;40888;48.148;11.526;2024-01-07T03:09:59;33.97;;;26.27;;
22955;SDS011;40888;48.148;11.526;2024-01-07T03:12:25;34.70;;;26.33;;
22955;SDS011;40888;48.148;11.526;2024-01-07T03:14:51;31.83;;;25.27;;
22955;SDS011;40888;48.148;11.526;2024-01-07T03:17:17;33.03;;;26.30;;
22955;SDS011;40888;48.148;11.526;2024-01-07T03:19:44;35.83;;;27.83;;
22955;SDS011;40888;48.148;11.526;2024-01-07T03:22:10;34.50;;;26.63;;
22955;SDS011;40888;48.148;11.526;2024-01-07T03:24:36;34.97;;;26.20;;
22955;SDS011;40888;48.148;11.526;2024-01-07T03:27:02;30.07;;;24.10;;
22955;SDS011;40888;48.148;11.526;2024-01-07T03:29:28;33.97;;;26.13;;
22955;SDS011;40888;48.148;11.526;2024-01-07T03:31:54;34.27;;;26.43;;
22955;SDS011;40888;48.148;11.526;2024-01-07T03:34:20;31.33;;;25.67;;
22955;SDS011;40888;48.148;11.526;2024-01-07T03:36:46;32.13;;;25.77;;
22955;SDS011;40888;48.148;11.526;2024-01-07T03:39:12;31.87;;;24.90;;
22955;SDS011;40888;48.148;11.526;2024-01-07T03:41:38;31.70;;;24.87;;
22955;SDS011;40888;48.148;11.526;2024-01-07T03:44:04;31.50;;;25.13;;
22955;SDS011;40888;48.148;11.526;2024-01-07T03:46:30;33.27;;;26.07;;
22955;SDS011;40888;48.148;11.526;2024-01-07T03:48:56;31.77;;;25.37;;
22955;SDS011;40888;48.148;11.526;2024-01-07T03:51:22;31.83;;;24.53;;
22955;SDS011;40888;48.148;11.526;2024-01-07T03:53:49;33.37;;;25.63;;
22955;SDS011;40888;48.148;11.526;2024-01-07T03:56:15;31.60;;;25.33;;
22955;SDS011;40888;48.148;11.526;2024-01-07T03:58:41;30.90;;;24.53;;
22955;SDS011;40888;48.148;11.526;2024-01-07T04:01:07;33.10;;;26.40;;
22955;SDS011;40888;48.148;11.526;2024-01-07T04:03:33;32.37;;;26.23;;
22955;SDS011;40888;48.148;11.526;2024-01-07T04:05:59;31.83;;;26.03;;
22955;SDS011;40888;48.148;11.526;2024-01-07T04:08:25;31.27;;;26.37;;
22955;SDS011;40888;48.148;11.526;2024-01-07T04:10:51;30.13;;;24.80;;
22955;SDS011;40888;48.148;11.526;2024-01-07T04:13:17;28.60;;;24.40;;
22955;SDS011;40888;48.148;11.526;2024-01-07T04:15:43;32.97;;;27.43;;
22955;SDS011;40888;48.148;11.526;2024-01-07T04:18:09;29.93;;;24.97;;
22955;SDS011;40888;48.148;11.526;2024-01-07T04:20:35;31.37;;;25.13;;
22955;SDS011;40888;48.148;11.526;2024-01-07T04:23:01;30.30;;;25.13;;
22955;SDS011;40888;48.148;11.526;2024-01-07T04:25:27;30.57;;;25.27;;
22955;SDS011;40888;48.148;11.526;2024-01-07T04:27:53;28.80;;;23.43;;
22955;SDS011;40888;48.148;11.526;2024-01-07T04:30:19;29.43;;;24.70;;
22955;SDS011;40888;48.148;11.526;2024-01-07T04:32:45;26.70;;;23.37;;
22955;SDS011;40888;48.148;11.526;2024-01-07T04:35:11;29.27;;;24.83;;
22955;SDS011;40888;48.148;11.526;2024-01-07T04:37:37;28.43;;;24.03;;
22955;SDS011;40888;48.148;11.526;2024-01-07T04:40:03;29.97;;;24.50;;
22955;SDS011;40888;48.148;11.526;2024-01-07T04:42:29;30.20;;;25.20;;
22955;SDS011;40888;48.148;11.526;2024-01-07T04:44:56;29.53;;;24.73;;
22955;SDS011;40888;48.148;11.526;2024-01-07T04:47:29;28.87;;;24.67;;
22955;SDS011;40888;48.148;11.526;2024-01-07T04:49:55;28.10;;;23.20;;
22955;SDS011;40888;48.148;11.526;2024-01-07T04:52:22;25.47;;;22.67;;
22955;SDS011;40888;48.148;11.526;2024-01-07T04:54:48;25.53;;;22.57;;
22955;SDS011;40888;48.148;11.526;2024-01-07T04:57:14;28.47;;;24.17;;
22955;SDS011;40888;48.148;11.526;2024-01-07T04:59:40;24.83;;;21.93;;
22955;SDS011;40888;48.148;11.526;2024-01-07T05:02:06;28.97;;;23.40;;
22955;SDS011;40888;48.148;11.526;2024-01-07T05:04:32;27.50;;;23.97;;
22955;SDS011;40888;48.148;11.526;2024-01-07T05:06:59;28.17;;;24.40;;
22955;SDS011;40888;48.148;11.526;2024-01-07T05:09:25;28.10;;;24.30;;
22955;SDS011;40888;48.148;11.526;2024-01-07T05:11:51;28.60;;;25.17;;
22955;SDS011;40888;48.148;11.526;2024-01-07T05:14:17;26.27;;;23.47;;
22955;SDS011;40888;48.148;11.526;2024-01-07T05:16:43;29.47;;;24.37;;
22955;SDS011;40888;48.148;11.526;2024-01-07T05:19:09;31.23;;;26.37;;
22955;SDS011;40888;48.148;11.526;2024-01-07T05:21:35;27.27;;;23.70;;
22955;SDS011;40888;48.148;11.526;2024-01-07T05:24:01;30.60;;;25.33;;
22955;SDS011;40888;48.148;11.526;2024-01-07T05:26:27;30.83;;;24.83;;
22955;SDS011;40888;48.148;11.526;2024-01-07T05:28:53;29.33;;;25.53;;
22955;SDS011;40888;48.148;11.526;2024-01-07T05:31:19;25.83;;;22.93;;
22955;SDS011;40888;48.148;11.526;2024-01-07T05:33:45;24.93;;;22.40;;
22955;SDS011;40888;48.148;11.526;2024-01-07T05:36:11;23.97;;;21.37;;
22955;SDS011;40888;48.148;11.526;2024-01-07T05:38:37;26.30;;;23.53;;
22955;SDS011;40888;48.148;11.526;2024-01-07T05:41:04;25.70;;;22.77;;
22955;SDS011;40888;48.148;11.526;2024-01-07T05:43:30;21.90;;;19.63;;
22955;SDS011;40888;48.148;11.526;2024-01-07T05:45:56;23.90;;;21.30;;
22955;SDS011;40888;48.148;11.526;2024-01-07T05:48:22;24.30;;;21.70;;
22955;SDS011;40888;48.148;11.526;2024-01-07T05:50:48;21.87;;;19.57;;
22955;SDS011;40888;48.148;11.526;2024-01-07T05:53:15;24.57;;;20.60;;
22955;SDS011;40888;48.148;11.526;2024-01-07T05:55:42;20.67;;;18.57;;
22955;SDS011;40888;48.148;11.526;2024-01-07T05:58:08;19.67;;;17.77;;
22955;SDS011;40888;48.148;11.526;2024-01-07T06:00:34;19.87;;;17.90;;
22955;SDS011;40888;48.148;11.526;2024-01-07T06:03:00;17.97;;;16.27;;
22955;SDS011;40888;48.148;11.526;2024-01-07T06:05:26;18.23;;;16.27;;
22955;SDS011;40888;48.148;11.526;2024-01-07T06:07:52;17.97;;;16.17;;
22955;SDS011;40888;48.148;11.526;2024-01-07T06:10:18;17.90;;;16.10;;
22955;SDS011;40888;48.148;11.526;2024-01-07T06:12:44;20.30;;;18.20;;
22955;SDS011;40888;48.148;11.526;2024-01-07T06:15:11;18.60;;;16.70;;
22955;SDS011;40888;48.148;11.526;2024-01-07T06:17:37;16.23;;;14.70;;
22955;SDS011;40888;48.148;11.526;2024-01-07T06:20:03;17.57;;;15.80;;
22955;SDS011;40888;48.148;11.526;2024-01-07T06:22:30;17.30;;;15.50;;
22955;SDS011;40888;48.148;11.526;2024-01-07T06:24:56;17.97;;;16.17;;
22955;SDS011;40888;48.148;11.526;2024-01-07T06:27:22;15.23;;;13.80;;
22955;SDS011;40888;48.148;11.526;2024-01-07T06:29:49;17.73;;;15.97;;
22955;SDS011;40888;48.148;11.526;2024-01-07T06:32:15;15.40;;;13.90;;
22955;SDS011;40888;48.148;11.526;2024-01-07T06:34:41;16.13;;;14.53;;
22955;SDS011;40888;48.148;11.526;2024-01-07T06:37:07;15.80;;;14.20;;
22955;SDS011;40888;48.148;11.526;2024-01-07T06:39:35;17.10;;;14.67;;
22955;SDS011;40888;48.148;11.526;2024-01-07T06:42:01;16.63;;;14.87;;
22955;SDS011;40888;48.148;11.526;2024-01-07T06:44:27;14.23;;;12.83;;
22955;SDS011;40888;48.148;11.526;2024-01-07T06:46:53;14.37;;;12.87;;
22955;SDS011;40888;48.148;11.526;2024-01-07T06:49:19;13.60;;;12.30;;
22955;SDS011;40888;48.148;11.526;2024-01-07T06:51:45;13.50;;;12.20;;
22955;SDS011;40888;48.148;11.526;2024-01-07T06:54:11;15.97;;;14.37;;
22955;SDS011;40888;48.148;11.526;2024-01-07T06:56:37;13.77;;;12.37;;
22955;SDS011;40888;48.148;11.526;2024-01-07T06:59:03;15.70;;;14.10;;
22955;SDS011;40888;48.148;11.526;2024-01-07T07:01:29;16.37;;;14.40;;
22955;SDS011;40888;48.148;11.526;2024-01-07T07:03:55;14.43;;;13.03;;
22955;SDS011;40888;48.148;11.526;2024-01-07T07:06:21;15.47;;;13.97;;
22955;SDS011;40888;48.148;11.526;2024-01-07T07:08:47;13.73;;;12.13;;
22955;SDS011;40888;48.148;11.526;2024-01-07T07:11:13;13.00;;;11.70;;
22955;SDS011;40888;48.148;11.526;2024-01-07T07:13:40;13.83;;;12.43;;
22955;SDS011;40888;48.148;11.526;2024-01-07T07:16:06;13.30;;;12.10;;
22955;SDS011;40888;48.148;11.526;2024-01-07T07:18:32;12.73;;;11.53;;
22955;SDS011;40888;48.148;11.526;2024-01-07T07:20:59;15.33;;;13.83;;
22955;SDS011;40888;48.148;11.526;2024-01-07T07:23:25;14.63;;;13.23;;
22955;SDS011;40888;48.148;11.526;2024-01-07T07:25:51;14.67;;;13.27;;
22955;SDS011;40888;48.148;11.526;2024-01-07T07:28:17;14.03;;;12.73;;
22955;SDS011;40888;48.148;11.526;2024-01-07T07:30:43;12.67;;;11.37;;
22955;SDS011;40888;48.148;11.526;2024-01-07T07:33:09;14.13;;;12.73;;
22955;SDS011;40888;48.148;11.526;2024-01-07T07:35:35;14.37;;;13.00;;
22955;SDS011;40888;48.148;11.526;2024-01-07T07:38:04;15.13;;;13.67;;
22955;SDS011;40888;48.148;11.526;2024-01-07T07:40:30;15.60;;;13.93;;
22955;SDS011;40888;48.148;11.526;2024-01-07T07:42:56;14.53;;;13.13;;
22955;SDS011;40888;48.148;11.526;2024-01-07T07:45:22;15.77;;;14.13;;
22955;SDS011;40888;48.148;11.526;2024-01-07T07:47:48;16.57;;;14.73;;
22955;SDS011;40888;48.148;11.526;2024-01-07T07:50:14;16.63;;;15.00;;
22955;SDS011;40888;48.148;11.526;2024-01-07T07:52:43;17.27;;;15.47;;
22955;SDS011;40888;48.148;11.526;2024-01-07T07:55:09;19.37;;;16.23;;
22955;SDS011;40888;48.148;11.526;2024-01-07T07:57:36;17.97;;;16.17;;
22955;SDS011;40888;48.148;11.526;2024-01-07T08:00:03;17.07;;;15.27;;
22955;SDS011;40888;48.148;11.526;2024-01-07T08:02:30;16.70;;;15.03;;
22955;SDS011;40888;48.148;11.526;2024-01-07T08:04:56;16.80;;;15.10;;
22955;SDS011;40888;48.148;11.526;2024-01-07T08:07:22;17.93;;;16.03;;
22955;SDS011;40888;48.148;11.526;2024-01-07T08:09:48;17.50;;;15.73;;
22955;SDS011;40888;48.148;11.526;2024-01-07T08:12:14;17.07;;;15.27;;
22955;SDS011;40888;48.148;11.526;2024-01-07T08:14:40;17.27;;;15.47;;
22955;SDS011;40888;48.148;11.526;2024-01-07T08:17:06;17.47;;;15.47;;
22955;SDS011;40888;48.148;11.526;2024-01-07T08:19:32;15.80;;;14.20;;
22955;SDS011;40888;48.148;11.526;2024-01-07T08:21:58;17.27;;;14.70;;
22955;SDS011;40888;48.148;11.526;2024-01-07T08:24:25;17.17;;;15.07;;
22955;SDS011;40888;48.148;11.526;2024-01-07T08:26:51;18.10;;;16.20;;
22955;SDS011;40888;48.148;11.526;2024-01-07T08:29:17;16.00;;;14.40;;
22955;SDS011;40888;48.148;11.526;2024-01-07T08:31:43;18.03;;;16.13;;
22955;SDS011;40888;48.148;11.526;2024-01-07T08:34:09;18.83;;;16.10;;
22955;SDS011;40888;48.148;11.526;2024-01-07T08:36:35;19.30;;;16.43;;
22955;SDS011;40888;48.148;11.526;2024-01-07T08:39:01;17.93;;;15.70;;
22955;SDS011;40888;48.148;11.526;2024-01-07T08:41:27;16.60;;;14.60;;
22955;SDS011;40888;48.148;11.526;2024-01-07T08:43:53;19.20;;;15.97;;
22955;SDS011;40888;48.148;11.526;2024-01-07T08:46:20;16.27;;;13.90;;
22955;SDS011;40888;48.148;11.526;2024-01-07T08:48:46;17.13;;;15.00;;
22955;SDS011;40888;48.148;11.526;2024-01-07T08:51:12;17.77;;;15.67;;
22955;SDS011;40888;48.148;11.526;2024-01-07T08:56:42;19.60;;;16.87;;
22955;SDS011;40888;48.148;11.526;2024-01-07T08:59:10;16.60;;;14.80;;
22955;SDS011;40888;48.148;11.526;2024-01-07T09:01:35;18.10;;;15.30;;
22955;SDS011;40888;48.148;11.526;2024-01-07T09:04:01;17.30;;;15.23;;
22955;SDS011;40888;48.148;11.526;2024-01-07T09:06:27;15.60;;;14.00;;
22955;SDS011;40888;48.148;11.526;2024-01-07T09:08:53;17.27;;;15.47;;
22955;SDS011;40888;48.148;11.526;2024-01-07T09:11:19;18.27;;;16.30;;
22955;SDS011;40888;48.148;11.526;2024-01-07T09:13:46;19.40;;;16.27;;
22955;SDS011;40888;48.148;11.526;2024-01-07T09:16:14;22.30;;;17.47;;
22955;SDS011;40888;48.148;11.526;2024-01-07T09:18:40;22.73;;;18.77;;
22955;SDS011;40888;48.148;11.526;2024-01-07T09:21:06;19.47;;;17.07;;
22955;SDS011;40888;48.148;11.526;2024-01-07T09:23:32;21.83;;;17.93;;
22955;SDS011;40888;48.148;11.526;2024-01-07T09:26:01;20.63;;;17.17;;
22955;SDS011;40888;48.148;11.526;2024-01-07T09:28:27;21.50;;;18.60;;
22955;SDS011;40888;48.148;11.526;2024-01-07T09:30:53;22.30;;;18.80;;
22955;SDS011;40888;48.148;11.526;2024-01-07T09:33:19;23.63;;;19.13;;
22955;SDS011;40888;48.148;11.526;2024-01-07T09:35:47;19.03;;;16.50;;
22955;SDS011;40888;48.148;11.526;2024-01-07T09:38:13;19.53;;;16.57;;
22955;SDS011;40888;48.148;11.526;2024-01-07T09:40:40;18.70;;;16.63;;
22955;SDS011;40888;48.148;11.526;2024-01-07T09:43:15;20.00;;;17.20;;
22955;SDS011;40888;48.148;11.526;2024-01-07T09:45:42;19.13;;;16.57;;
22955;SDS011;40888;48.148;11.526;2024-01-07T09:48:11;19.00;;;15.83;;
22955;SDS011;40888;48.148;11.526;2024-01-07T09:50:38;19.20;;;16.17;;
22955;SDS011;40888;48.148;11.526;2024-01-07T09:53:04;21.23;;;17.60;;
22955;SDS011;40888;48.148;11.526;2024-01-07T09:55:31;19.53;;;17.13;;
22955;SDS011;40888;48.148;11.526;2024-01-07T09:58:02;19.67;;;17.03;;
22955;SDS011;40888;48.148;11.526;2024-01-07T10:00:28;18.40;;;16.33;;
22955;SDS011;40888;48.148;11.526;2024-01-07T10:02:55;23.03;;;18.80;;
22955;SDS011;40888;48.148;11.526;2024-01-07T10:05:21;24.50;;;19.77;;
22955;SDS011;40888;48.148;11.526;2024-01-07T10:07:50;22.77;;;18.57;;
22955;SDS011;40888;48.148;11.526;2024-01-07T10:10:19;23.97;;;19.83;;
22955;SDS011;40888;48.148;11.526;2024-01-07T10:12:45;24.47;;;19.73;;
22955;SDS011;40888;48.148;11.526;2024-01-07T10:15:12;21.40;;;18.70;;
22955;SDS011;40888;48.148;11.526;2024-01-07T10:17:39;24.60;;;19.40;;
22955;SDS011;40888;48.148;11.526;2024-01-07T10:20:05;26.30;;;19.63;;
22955;SDS011;40888;48.148;11.526;2024-01-07T10:22:35;22.33;;;19.33;;
22955;SDS011;40888;48.148;11.526;2024-01-07T10:25:01;21.40;;;18.30;;
22955;SDS011;40888;48.148;11.526;2024-01-07T10:27:27;25.83;;;19.70;;
22955;SDS011;40888;48.148;11.526;2024-01-07T10:29:53;21.63;;;18.30;;
22955;SDS011;40888;48.148;11.526;2024-01-07T10:32:20;24.73;;;20.70;;
22955;SDS011;40888;48.148;11.526;2024-01-07T10:34:46;21.67;;;18.80;;
22955;SDS011;40888;48.148;11.526;2024-01-07T10:37:12;21.60;;;18.03;;
22955;SDS011;40888;48.148;11.526;2024-01-07T10:39:39;23.37;;;19.40;;
22955;SDS011;40888;48.148;11.526;2024-01-07T10:42:05;18.20;;;16.30;;
22955;SDS011;40888;48.148;11.526;2024-01-07T10:44:32;19.30;;;16.50;;
22955;SDS011;40888;48.148;11.526;2024-01-07T10:46:58;19.37;;;17.00;;
22955;SDS011;40888;48.148;11.526;2024-01-07T10:49:26;18.73;;;16.33;;
22955;SDS011;40888;48.148;11.526;2024-01-07T10:54:29;18.00;;;15.40;;
22955;SDS011;40888;48.148;11.526;2024-01-07T10:56:57;16.00;;;14.30;;
22955;SDS011;40888;48.148;11.526;2024-01-07T10:59:24;15.97;;;14.20;;
22955;SDS011;40888;48.148;11.526;2024-01-07T11:01:51;15.17;;;13.67;;
22955;SDS011;40888;48.148;11.526;2024-01-07T11:04:23;14.53;;;13.00;;
22955;SDS011;40888;48.148;11.526;2024-01-07T11:09:33;17.97;;;15.93;;
22955;SDS011;40888;48.148;11.526;2024-01-07T11:12:01;20.97;;;16.20;;
22955;SDS011;40888;48.148;11.526;2024-01-07T11:14:40;20.20;;;16.93;;
22955;SDS011;40888;48.148;11.526;2024-01-07T11:17:10;21.80;;;17.87;;
22955;SDS011;40888;48.148;11.526;2024-01-07T11:19:36;22.83;;;19.07;;
22955;SDS011;40888;48.148;11.526;2024-01-07T11:22:21;21.63;;;18.27;;
22955;SDS011;40888;48.148;11.526;2024-01-07T11:24:52;17.67;;;15.40;;
22955;SDS011;40888;48.148;11.526;2024-01-07T11:27:22;16.93;;;14.53;;
22955;SDS011;40888;48.148;11.526;2024-01-07T11:29:58;19.60;;;16.03;;
22955;SDS011;40888;48.148;11.526;2024-01-07T11:32:29;21.70;;;17.30;;
22955;SDS011;40888;48.148;11.526;2024-01-07T11:34:56;22.50;;;17.90;;
22955;SDS011;40888;48.148;11.526;2024-01-07T11:37:24;17.27;;;15.30;;
22955;SDS011;40888;48.148;11.526;2024-01-07T11:39:51;22.43;;;18.23;;
22955;SDS011;40888;48.148;11.526;2024-01-07T11:42:17;18.47;;;16.07;;
22955;SDS011;40888;48.148;11.526;2024-01-07T11:44:53;15.87;;;14.13;;
22955;SDS011;40888;48.148;11.526;2024-01-07T11:47:21;14.57;;;13.07;;
22955;SDS011;40888;48.148;11.526;2024-01-07T11:49:47;17.90;;;15.07;;
22955;SDS011;40888;48.148;11.526;2024-01-07T11:52:16;18.83;;;15.00;;
22955;SDS011;40888;48.148;11.526;2024-01-07T11:54:43;15.53;;;13.93;;
22955;SDS011;40888;48.148;11.526;2024-01-07T11:57:09;16.73;;;15.03;;
22955;SDS011;40888;48.148;11.526;2024-01-07T11:59:36;16.60;;;14.10;;
22955;SDS011;40888;48.148;11.526;2024-01-07T12:02:03;17.40;;;15.60;;
22955;SDS011;40888;48.148;11.526;2024-01-07T12:04:32;14.83;;;13.33;;
22955;SDS011;40888;48.148;11.526;2024-01-07T12:06:58;16.93;;;14.00;;
22955;SDS011;40888;48.148;11.526;2024-01-07T12:09:25;18.67;;;16.33;;
22955;SDS011;40888;48.148;11.526;2024-01-07T12:11:51;15.90;;;14.30;;
22955;SDS011;40888;48.148;11.526;2024-01-07T12:14:18;17.40;;;15.60;;
22955;SDS011;40888;48.148;11.526;2024-01-07T12:16:44;17.97;;;16.07;;
22955;SDS011;40888;48.148;11.526;2024-01-07T12:19:10;15.40;;;13.80;;
22955;SDS011;40888;48.148;11.526;2024-01-07T12:21:36;18.47;;;16.47;;
22955;SDS011;40888;48.148;11.526;2024-01-07T12:24:03;19.60;;;17.13;;
22955;SDS011;40888;48.148;11.526;2024-01-07T12:26:29;19.93;;;17.83;;
22955;SDS011;40888;48.148;11.526;2024-01-07T12:28:58;18.87;;;16.87;;
22955;SDS011;40888;48.148;11.526;2024-01-07T12:31:29;21.30;;;18.77;;
22955;SDS011;40888;48.148;11.526;2024-01-07T12:33:56;21.33;;;18.87;;
22955;SDS011;40888;48.148;11.526;2024-01-07T12:36:22;21.57;;;18.63;;
22955;SDS011;40888;48.148;11.526;2024-01-07T12:38:49;18.40;;;16.37;;
22955;SDS011;40888;48.148;11.526;2024-01-07T12:41:16;16.73;;;14.93;;
22955;SDS011;40888;48.148;11.526;2024-01-07T12:43:42;20.63;;;18.43;;
22955;SDS011;40888;48.148;11.526;2024-01-07T12:46:08;20.47;;;18.37;;
22955;SDS011;40888;48.148;11.526;2024-01-07T12:48:34;20.60;;;18.40;;
22955;SDS011;40888;48.148;11.526;2024-01-07T12:51:01;17.07;;;15.37;;
22955;SDS011;40888;48.148;11.526;2024-01-07T12:53:27;19.70;;;17.63;;
22955;SDS011;40888;48.148;11.526;2024-01-07T12:55:54;20.03;;;17.37;;
22955;SDS011;40888;48.148;11.526;2024-01-07T12:58:20;18.47;;;16.50;;
22955;SDS011;40888;48.148;11.526;2024-01-07T13:00:46;18.47;;;16.43;;
22955;SDS011;40888;48.148;11.526;2024-01-07T13:03:13;22.43;;;18.63;;
22955;SDS011;40888;48.148;11.526;2024-01-07T13:05:43;16.47;;;14.77;;
22955;SDS011;40888;48.148;11.526;2024-01-07T13:08:14;19.10;;;17.10;;
22955;SDS011;40888;48.148;11.526;2024-01-07T13:10:40;17.27;;;15.40;;
22955;SDS011;40888;48.148;11.526;2024-01-07T13:13:06;15.33;;;13.83;;
22955;SDS011;40888;48.148;11.526;2024-01-07T13:15:34;16.20;;;14.60;;
22955;SDS011;40888;48.148;11.526;2024-01-07T13:18:00;16.83;;;15.13;;
22955;SDS011;40888;48.148;11.526;2024-01-07T13:20:26;17.57;;;15.77;;
22955;SDS011;40888;48.148;11.526;2024-01-07T13:22:52;16.43;;;14.80;;
22955;SDS011;40888;48.148;11.526;2024-01-07T13:25:18;20.00;;;17.70;;
22955;SDS011;40888;48.148;11.526;2024-01-07T13:27:44;21.47;;;17.60;;
22955;SDS011;40888;48.148;11.526;2024-01-07T13:30:10;20.53;;;18.33;;
22955;SDS011;40888;48.148;11.526;2024-01-07T13:32:36;20.03;;;17.90;;
22955;SDS011;40888;48.148;11.526;2024-01-07T13:35:03;21.23;;;18.97;;
22955;SDS011;40888;48.148;11.526;2024-01-07T13:37:30;21.63;;;19.37;;
22955;SDS011;40888;48.148;11.526;2024-01-07T13:39:56;25.37;;;20.87;;
22955;SDS011;40888;48.148;11.526;2024-01-07T13:42:22;23.57;;;21.07;;
22955;SDS011;40888;48.148;11.526;2024-01-07T13:44:48;24.63;;;22.00;;
22955;SDS011;40888;48.148;11.526;2024-01-07T13:47:14;18.83;;;16.93;;
22955;SDS011;40888;48.148;11.526;2024-01-07T13:49:41;18.33;;;16.53;;
22955;SDS011;40888;48.148;11.526;2024-01-07T13:52:09;17.50;;;15.67;;
22955;SDS011;40888;48.148;11.526;2024-01-07T13:54:37;17.00;;;14.30;;
22955;SDS011;40888;48.148;11.526;2024-01-07T13:57:04;18.70;;;16.70;;
22955;SDS011;40888;48.148;11.526;2024-01-07T13:59:32;17.07;;;15.33;;
22955;SDS011;40888;48.148;11.526;2024-01-07T14:01:58;15.17;;;13.77;;
22955;SDS011;40888;48.148;11.526;2024-01-07T14:04:24;16.93;;;15.33;;
22955;SDS011;40888;48.148;11.526;2024-01-07T14:06:57;15.23;;;13.63;;
22955;SDS011;40888;48.148;11.526;2024-01-07T14:11:58;21.30;;;19.07;;
22955;SDS011;40888;48.148;11.526;2024-01-07T14:14:24;22.17;;;19.90;;
22955;SDS011;40888;48.148;11.526;2024-01-07T14:16:50;22.23;;;19.83;;